sensor_id;sensor_type;location;lat;lon;timestamp;pressure;altitude;pressure_sealevel;temperature;humidity
70506;BME280;58032;49.820;6.274;2024-03-29T00:01:16;95498.88;;;6.14;100.00
70506;BME280;58032;49.820;6.274;2024-03-29T00:03:42;95509.00;;;6.11;100.00
70506;BME280;58032;49.820;6.274;2024-03-29T00:06:09;95504.91;;;5.97;100.00
70506;BME280;58032;49.820;6.274;2024-03-29T00:08:35;95494.50;;;5.98;100.00
70506;BME280;58032;49.820;6.274;2024-03-29T00:11:01;95488.91;;;5.98;100.00
70506;BME280;58032;49.820;6.274;2024-03-29T00:13:28;95487.78;;;5.90;100.00
70506;BME280;58032;49.820;6.274;2024-03-29T00:15:54;95492.56;;;5.89;100.00
70506;BME280;58032;49.820;6.274;2024-03-29T00:18:20;95507.06;;;6.02;100.00
70506;BME280;58032;49.820;6.274;2024-03-29T00:20:47;95497.28;;;5.98;100.00
70506;BME280;58032;49.820;6.274;2024-03-29T00:23:13;95479.19;;;5.93;100.00
70506;BME280;58032;49.820;6.274;2024-03-29T00:25:39;95478.91;;;5.91;100.00
70506;BME280;58032;49.820;6.274;2024-03-29T00:28:06;95485.44;;;5.88;100.00
70506;BME280;58032;49.820;6.274;2024-03-29T00:30:33;95490.56;;;5.90;100.00
70506;BME280;58032;49.820;6.274;2024-03-29T00:32:59;95485.94;;;6.01;100.00
70506;BME280;58032;49.820;6.274;2024-03-29T00:35:25;95487.22;;;6.00;100.00
70506;BME280;58032;49.820;6.274;2024-03-29T00:37:51;95485.59;;;6.09;100.00
70506;BME280;58032;49.820;6.274;2024-03-29T00:40:17;95487.22;;;6.00;100.00
70506;BME280;58032;49.820;6.274;2024-03-29T00:42:43;95481.06;;;6.11;100.00
70506;BME280;58032;49.820;6.274;2024-03-29T00:45:09;95490.41;;;6.08;100.00
70506;BME280;58032;49.820;6.274;2024-03-29T00:47:37;95482.03;;;6.23;100.00
70506;BME280;58032;49.820;6.274;2024-03-29T00:50:03;95462.66;;;6.20;100.00
70506;BME280;58032;49.820;6.274;2024-03-29T00:52:29;95465.63;;;6.31;100.00
70506;BME280;58032;49.820;6.274;2024-03-29T00:54:55;95464.38;;;6.17;100.00
70506;BME280;58032;49.820;6.274;2024-03-29T00:57:21;95492.63;;;6.19;100.00
70506;BME280;58032;49.820;6.274;2024-03-29T00:59:47;95485.38;;;6.27;100.00
70506;BME280;58032;49.820;6.274;2024-03-29T01:02:13;95513.63;;;6.29;100.00
70506;BME280;58032;49.820;6.274;2024-03-29T01:04:39;95500.31;;;6.09;100.00
70506;BME280;58032;49.820;6.274;2024-03-29T01:07:06;95495.69;;;6.06;100.00
70506;BME280;58032;49.820;6.274;2024-03-29T01:09:33;95478.19;;;6.21;100.00
70506;BME280;58032;49.820;6.274;2024-03-29T01:11:59;95473.53;;;6.47;100.00
70506;BME280;58032;49.820;6.274;2024-03-29T01:14:25;95476.41;;;6.53;100.00
70506;BME280;58032;49.820;6.274;2024-03-29T01:16:51;95471.75;;;6.65;100.00
70506;BME280;58032;49.820;6.274;2024-03-29T01:19:18;95469.72;;;6.80;100.00
70506;BME280;58032;49.820;6.274;2024-03-29T01:21:44;95455.34;;;6.73;100.00
70506;BME280;58032;49.820;6.274;2024-03-29T01:24:10;95458.09;;;6.88;100.00
70506;BME280;58032;49.820;6.274;2024-03-29T01:26:36;95443.53;;;6.84;100.00
70506;BME280;58032;49.820;6.274;2024-03-29T01:29:02;95446.00;;;6.76;100.00
70506;BME280;58032;49.820;6.274;2024-03-29T01:31:29;95421.50;;;6.71;100.00
70506;BME280;58032;49.820;6.274;2024-03-29T01:33:55;95407.84;;;6.58;100.00
70506;BME280;58032;49.820;6.274;2024-03-29T01:36:23;95401.00;;;6.59;100.00
70506;BME280;58032;49.820;6.274;2024-03-29T01:38:49;95410.25;;;6.65;100.00
70506;BME280;58032;49.820;6.274;2024-03-29T01:41:20;95419.84;;;6.43;100.00
70506;BME280;58032;49.820;6.274;2024-03-29T01:43:46;95433.84;;;6.13;100.00
70506;BME280;58032;49.820;6.274;2024-03-29T01:46:12;95417.25;;;5.95;100.00
70506;BME280;58032;49.820;6.274;2024-03-29T01:48:38;95416.81;;;6.11;100.00
70506;BME280;58032;49.820;6.274;2024-03-29T01:51:04;95396.75;;;6.28;100.00
70506;BME280;58032;49.820;6.274;2024-03-29T01:53:31;95405.56;;;6.41;100.00
70506;BME280;58032;49.820;6.274;2024-03-29T01:55:59;95402.91;;;6.68;100.00
70506;BME280;58032;49.820;6.274;2024-03-29T01:58:26;95397.31;;;6.68;100.00
70506;BME280;58032;49.820;6.274;2024-03-29T02:00:54;95395.56;;;6.70;100.00
70506;BME280;58032;49.820;6.274;2024-03-29T02:03:21;95392.25;;;6.51;100.00
70506;BME280;58032;49.820;6.274;2024-03-29T02:05:49;95372.50;;;6.04;100.00
70506;BME280;58032;49.820;6.274;2024-03-29T02:08:15;95379.50;;;6.14;100.00
70506;BME280;58032;49.820;6.274;2024-03-29T02:10:43;95372.38;;;6.13;100.00
70506;BME280;58032;49.820;6.274;2024-03-29T02:13:09;95376.25;;;6.16;100.00
70506;BME280;58032;49.820;6.274;2024-03-29T02:15:36;95382.78;;;6.28;100.00
70506;BME280;58032;49.820;6.274;2024-03-29T02:18:02;95362.53;;;6.54;100.00
70506;BME280;58032;49.820;6.274;2024-03-29T02:20:28;95385.22;;;6.41;100.00
70506;BME280;58032;49.820;6.274;2024-03-29T02:23:06;95396.38;;;6.56;100.00
70506;BME280;58032;49.820;6.274;2024-03-29T02:25:36;95391.38;;;6.80;100.00
70506;BME280;58032;49.820;6.274;2024-03-29T02:28:03;95395.47;;;6.64;100.00
70506;BME280;58032;49.820;6.274;2024-03-29T02:30:30;95395.22;;;6.62;100.00
70506;BME280;58032;49.820;6.274;2024-03-29T02:32:58;95390.16;;;6.67;100.00
70506;BME280;58032;49.820;6.274;2024-03-29T02:35:25;95388.84;;;6.82;100.00
70506;BME280;58032;49.820;6.274;2024-03-29T02:37:51;95382.41;;;6.76;100.00
70506;BME280;58032;49.820;6.274;2024-03-29T02:40:18;95384.03;;;6.83;100.00
70506;BME280;58032;49.820;6.274;2024-03-29T02:42:45;95384.16;;;6.74;100.00
70506;BME280;58032;49.820;6.274;2024-03-29T02:45:11;95395.28;;;6.68;100.00
70506;BME280;58032;49.820;6.274;2024-03-29T02:47:37;95392.69;;;6.64;100.00
70506;BME280;58032;49.820;6.274;2024-03-29T02:50:05;95395.34;;;6.53;100.00
70506;BME280;58032;49.820;6.274;2024-03-29T02:52:31;95403.09;;;6.64;100.00
70506;BME280;58032;49.820;6.274;2024-03-29T02:54:57;95408.13;;;6.60;100.00
70506;BME280;58032;49.820;6.274;2024-03-29T02:57:23;95404.06;;;6.61;100.00
70506;BME280;58032;49.820;6.274;2024-03-29T02:59:49;95401.56;;;6.63;100.00
70506;BME280;58032;49.820;6.274;2024-03-29T03:02:15;95402.66;;;6.51;100.00
70506;BME280;58032;49.820;6.274;2024-03-29T03:04:41;95410.34;;;6.56;100.00
70506;BME280;58032;49.820;6.274;2024-03-29T03:07:07;95404.34;;;6.63;100.00
70506;BME280;58032;49.820;6.274;2024-03-29T03:09:51;95412.78;;;6.48;100.00
70506;BME280;58032;49.820;6.274;2024-03-29T03:12:36;95419.72;;;6.53;100.00
70506;BME280;58032;49.820;6.274;2024-03-29T03:15:02;95423.84;;;6.57;100.00
70506;BME280;58032;49.820;6.274;2024-03-29T03:17:30;95423.66;;;6.61;100.00
70506;BME280;58032;49.820;6.274;2024-03-29T03:19:57;95424.50;;;6.67;100.00
70506;BME280;58032;49.820;6.274;2024-03-29T03:22:24;95414.69;;;6.57;100.00
70506;BME280;58032;49.820;6.274;2024-03-29T03:24:50;95415.56;;;6.48;100.00
70506;BME280;58032;49.820;6.274;2024-03-29T03:27:16;95415.09;;;6.49;100.00
70506;BME280;58032;49.820;6.274;2024-03-29T03:29:42;95409.72;;;6.46;100.00
70506;BME280;58032;49.820;6.274;2024-03-29T03:32:08;95404.97;;;6.52;100.00
70506;BME280;58032;49.820;6.274;2024-03-29T03:34:34;95401.94;;;6.35;100.00
70506;BME280;58032;49.820;6.274;2024-03-29T03:37:00;95404.13;;;6.46;100.00
70506;BME280;58032;49.820;6.274;2024-03-29T03:39:27;95390.06;;;6.40;100.00
70506;BME280;58032;49.820;6.274;2024-03-29T03:41:53;95394.63;;;6.23;100.00
70506;BME280;58032;49.820;6.274;2024-03-29T03:44:19;95395.06;;;6.36;100.00
70506;BME280;58032;49.820;6.274;2024-03-29T03:46:47;95395.84;;;6.37;100.00
70506;BME280;58032;49.820;6.274;2024-03-29T03:49:13;95400.44;;;6.55;100.00
70506;BME280;58032;49.820;6.274;2024-03-29T03:51:39;95400.22;;;6.58;100.00
70506;BME280;58032;49.820;6.274;2024-03-29T03:54:05;95393.50;;;6.50;100.00
70506;BME280;58032;49.820;6.274;2024-03-29T03:56:31;95407.19;;;6.48;100.00
70506;BME280;58032;49.820;6.274;2024-03-29T03:58:57;95411.41;;;6.58;100.00
70506;BME280;58032;49.820;6.274;2024-03-29T04:01:24;95417.50;;;6.57;100.00
70506;BME280;58032;49.820;6.274;2024-03-29T04:03:50;95414.78;;;6.62;100.00
70506;BME280;58032;49.820;6.274;2024-03-29T04:06:16;95417.78;;;6.59;100.00
70506;BME280;58032;49.820;6.274;2024-03-29T04:08:44;95418.94;;;6.52;100.00
70506;BME280;58032;49.820;6.274;2024-03-29T04:11:10;95413.34;;;6.52;100.00
70506;BME280;58032;49.820;6.274;2024-03-29T04:13:36;95418.06;;;6.61;100.00
70506;BME280;58032;49.820;6.274;2024-03-29T04:16:06;95406.78;;;6.55;100.00
70506;BME280;58032;49.820;6.274;2024-03-29T04:18:33;95404.88;;;6.46;100.00
70506;BME280;58032;49.820;6.274;2024-03-29T04:21:00;95396.38;;;6.56;100.00
70506;BME280;58032;49.820;6.274;2024-03-29T04:23:27;95382.91;;;6.54;100.00
70506;BME280;58032;49.820;6.274;2024-03-29T04:25:53;95381.63;;;6.55;100.00
70506;BME280;58032;49.820;6.274;2024-03-29T04:28:19;95382.69;;;6.58;100.00
70506;BME280;58032;49.820;6.274;2024-03-29T04:30:53;95384.22;;;6.59;100.00
70506;BME280;58032;49.820;6.274;2024-03-29T04:33:20;95385.97;;;6.56;100.00
70506;BME280;58032;49.820;6.274;2024-03-29T04:35:58;95396.31;;;6.71;100.00
70506;BME280;58032;49.820;6.274;2024-03-29T04:38:24;95400.59;;;6.66;100.00
70506;BME280;58032;49.820;6.274;2024-03-29T04:40:52;95402.63;;;6.65;100.00
70506;BME280;58032;49.820;6.274;2024-03-29T04:43:20;95405.19;;;6.69;100.00
70506;BME280;58032;49.820;6.274;2024-03-29T04:45:47;95408.59;;;6.73;100.00
70506;BME280;58032;49.820;6.274;2024-03-29T04:48:13;95418.09;;;6.81;100.00
70506;BME280;58032;49.820;6.274;2024-03-29T04:50:39;95414.81;;;6.83;100.00
70506;BME280;58032;49.820;6.274;2024-03-29T04:53:07;95419.16;;;6.84;100.00
70506;BME280;58032;49.820;6.274;2024-03-29T04:55:34;95426.75;;;6.84;100.00
70506;BME280;58032;49.820;6.274;2024-03-29T04:58:01;95427.34;;;6.88;100.00
70506;BME280;58032;49.820;6.274;2024-03-29T05:00:28;95424.53;;;6.88;100.00
70506;BME280;58032;49.820;6.274;2024-03-29T05:02:54;95428.09;;;6.88;100.00
70506;BME280;58032;49.820;6.274;2024-03-29T05:05:20;95428.88;;;6.89;100.00
70506;BME280;58032;49.820;6.274;2024-03-29T05:07:46;95432.72;;;6.91;100.00
70506;BME280;58032;49.820;6.274;2024-03-29T05:10:12;95434.06;;;6.96;100.00
70506;BME280;58032;49.820;6.274;2024-03-29T05:12:38;95431.91;;;7.06;100.00
70506;BME280;58032;49.820;6.274;2024-03-29T05:15:04;95450.44;;;7.03;100.00
70506;BME280;58032;49.820;6.274;2024-03-29T05:17:31;95444.06;;;7.03;100.00
70506;BME280;58032;49.820;6.274;2024-03-29T05:19:57;95456.38;;;7.11;100.00
70506;BME280;58032;49.820;6.274;2024-03-29T05:22:23;95464.84;;;7.17;100.00
70506;BME280;58032;49.820;6.274;2024-03-29T05:24:53;95466.47;;;7.23;100.00
70506;BME280;58032;49.820;6.274;2024-03-29T05:27:20;95460.66;;;7.27;100.00
70506;BME280;58032;49.820;6.274;2024-03-29T05:29:46;95459.59;;;7.24;100.00
70506;BME280;58032;49.820;6.274;2024-03-29T05:32:13;95469.81;;;7.27;100.00
70506;BME280;58032;49.820;6.274;2024-03-29T05:34:39;95481.94;;;7.39;100.00
70506;BME280;58032;49.820;6.274;2024-03-29T05:37:05;95475.06;;;7.40;100.00
70506;BME280;58032;49.820;6.274;2024-03-29T05:39:31;95482.63;;;7.34;100.00
70506;BME280;58032;49.820;6.274;2024-03-29T05:41:57;95483.53;;;7.46;100.00
70506;BME280;58032;49.820;6.274;2024-03-29T05:44:24;95483.59;;;7.52;100.00
70506;BME280;58032;49.820;6.274;2024-03-29T05:46:50;95482.63;;;7.55;100.00
70506;BME280;58032;49.820;6.274;2024-03-29T05:49:16;95492.75;;;7.73;100.00
70506;BME280;58032;49.820;6.274;2024-03-29T05:51:42;95498.56;;;7.69;100.00
70506;BME280;58032;49.820;6.274;2024-03-29T05:54:08;95494.50;;;7.70;100.00
70506;BME280;58032;49.820;6.274;2024-03-29T05:56:34;95487.94;;;7.73;100.00
70506;BME280;58032;49.820;6.274;2024-03-29T05:59:00;95494.09;;;7.78;100.00
70506;BME280;58032;49.820;6.274;2024-03-29T06:01:26;95483.72;;;7.84;100.00
70506;BME280;58032;49.820;6.274;2024-03-29T06:03:52;95498.81;;;7.92;100.00
70506;BME280;58032;49.820;6.274;2024-03-29T06:06:20;95501.53;;;7.81;100.00
70506;BME280;58032;49.820;6.274;2024-03-29T06:08:50;95499.41;;;7.96;100.00
70506;BME280;58032;49.820;6.274;2024-03-29T06:11:16;95494.97;;;7.89;100.00
70506;BME280;58032;49.820;6.274;2024-03-29T06:13:42;95494.75;;;7.93;100.00
70506;BME280;58032;49.820;6.274;2024-03-29T06:16:28;95500.16;;;7.97;100.00
70506;BME280;58032;49.820;6.274;2024-03-29T06:19:12;95508.25;;;8.15;100.00
70506;BME280;58032;49.820;6.274;2024-03-29T06:21:38;95516.25;;;8.02;100.00
70506;BME280;58032;49.820;6.274;2024-03-29T06:24:06;95530.47;;;7.98;100.00
70506;BME280;58032;49.820;6.274;2024-03-29T06:26:33;95522.63;;;8.02;100.00
70506;BME280;58032;49.820;6.274;2024-03-29T06:29:00;95521.81;;;7.96;100.00
70506;BME280;58032;49.820;6.274;2024-03-29T06:31:27;95522.75;;;8.14;100.00
70506;BME280;58032;49.820;6.274;2024-03-29T06:33:54;95532.31;;;8.01;100.00
70506;BME280;58032;49.820;6.274;2024-03-29T06:36:20;95533.41;;;8.10;100.00
70506;BME280;58032;49.820;6.274;2024-03-29T06:38:46;95537.28;;;7.91;100.00
70506;BME280;58032;49.820;6.274;2024-03-29T06:41:12;95536.66;;;8.02;100.00
70506;BME280;58032;49.820;6.274;2024-03-29T06:43:41;95540.06;;;8.12;100.00
70506;BME280;58032;49.820;6.274;2024-03-29T06:46:09;95543.91;;;8.15;100.00
70506;BME280;58032;49.820;6.274;2024-03-29T06:48:36;95538.28;;;8.15;100.00
70506;BME280;58032;49.820;6.274;2024-03-29T06:51:02;95540.28;;;8.08;100.00
70506;BME280;58032;49.820;6.274;2024-03-29T06:53:28;95541.84;;;8.36;100.00
70506;BME280;58032;49.820;6.274;2024-03-29T06:55:55;95536.97;;;8.36;100.00
70506;BME280;58032;49.820;6.274;2024-03-29T06:58:24;95531.16;;;8.14;100.00
70506;BME280;58032;49.820;6.274;2024-03-29T07:00:50;95528.09;;;8.12;100.00
70506;BME280;58032;49.820;6.274;2024-03-29T07:03:16;95533.34;;;8.04;100.00
70506;BME280;58032;49.820;6.274;2024-03-29T07:05:46;95540.72;;;8.28;100.00
70506;BME280;58032;49.820;6.274;2024-03-29T07:08:12;95542.56;;;8.31;100.00
70506;BME280;58032;49.820;6.274;2024-03-29T07:10:38;95538.03;;;8.39;100.00
70506;BME280;58032;49.820;6.274;2024-03-29T07:13:06;95536.75;;;8.40;100.00
70506;BME280;58032;49.820;6.274;2024-03-29T07:15:32;95538.00;;;8.33;100.00
70506;BME280;58032;49.820;6.274;2024-03-29T07:17:59;95532.22;;;8.43;100.00
70506;BME280;58032;49.820;6.274;2024-03-29T07:20:26;95532.78;;;8.47;100.00
70506;BME280;58032;49.820;6.274;2024-03-29T07:22:52;95538.59;;;8.43;100.00
70506;BME280;58032;49.820;6.274;2024-03-29T07:25:18;95541.38;;;8.43;100.00
70506;BME280;58032;49.820;6.274;2024-03-29T07:27:44;95538.59;;;8.43;100.00
70506;BME280;58032;49.820;6.274;2024-03-29T07:30:11;95536.41;;;8.53;100.00
70506;BME280;58032;49.820;6.274;2024-03-29T07:32:37;95534.00;;;8.46;100.00
70506;BME280;58032;49.820;6.274;2024-03-29T07:35:04;95540.75;;;8.54;100.00
70506;BME280;58032;49.820;6.274;2024-03-29T07:37:30;95552.94;;;8.51;100.00
70506;BME280;58032;49.820;6.274;2024-03-29T07:39:56;95544.81;;;8.53;100.00
70506;BME280;58032;49.820;6.274;2024-03-29T07:42:22;95550.19;;;8.57;100.00
70506;BME280;58032;49.820;6.274;2024-03-29T07:44:48;95545.63;;;8.59;100.00
70506;BME280;58032;49.820;6.274;2024-03-29T07:47:14;95549.53;;;8.67;100.00
70506;BME280;58032;49.820;6.274;2024-03-29T07:49:40;95547.91;;;8.55;100.00
70506;BME280;58032;49.820;6.274;2024-03-29T07:52:06;95548.19;;;8.57;100.00
70506;BME280;58032;49.820;6.274;2024-03-29T07:54:35;95558.72;;;8.68;100.00
70506;BME280;58032;49.820;6.274;2024-03-29T07:57:01;95567.47;;;8.76;100.00
70506;BME280;58032;49.820;6.274;2024-03-29T07:59:28;95557.03;;;8.82;100.00
70506;BME280;58032;49.820;6.274;2024-03-29T08:01:54;95555.75;;;8.77;100.00
70506;BME280;58032;49.820;6.274;2024-03-29T08:04:21;95557.31;;;8.84;100.00
70506;BME280;58032;49.820;6.274;2024-03-29T08:06:47;95576.44;;;8.80;100.00
70506;BME280;58032;49.820;6.274;2024-03-29T08:09:13;95573.06;;;8.76;100.00
70506;BME280;58032;49.820;6.274;2024-03-29T08:11:40;95580.44;;;8.73;100.00
70506;BME280;58032;49.820;6.274;2024-03-29T08:14:06;95577.41;;;8.77;100.00
70506;BME280;58032;49.820;6.274;2024-03-29T08:16:33;95573.19;;;8.87;100.00
70506;BME280;58032;49.820;6.274;2024-03-29T08:18:59;95576.78;;;8.93;100.00
70506;BME280;58032;49.820;6.274;2024-03-29T08:21:25;95571.88;;;8.82;100.00
70506;BME280;58032;49.820;6.274;2024-03-29T08:23:53;95572.59;;;8.77;100.00
70506;BME280;58032;49.820;6.274;2024-03-29T08:26:21;95570.50;;;8.72;100.00
70506;BME280;58032;49.820;6.274;2024-03-29T08:28:47;95557.25;;;8.73;100.00
70506;BME280;58032;49.820;6.274;2024-03-29T08:31:13;95552.72;;;8.81;100.00
70506;BME280;58032;49.820;6.274;2024-03-29T08:33:39;95563.28;;;8.92;100.00
70506;BME280;58032;49.820;6.274;2024-03-29T08:36:06;95574.09;;;9.10;100.00
70506;BME280;58032;49.820;6.274;2024-03-29T08:38:32;95577.94;;;9.13;100.00
70506;BME280;58032;49.820;6.274;2024-03-29T08:40:58;95576.78;;;8.93;100.00
70506;BME280;58032;49.820;6.274;2024-03-29T08:43:24;95585.66;;;8.86;100.00
70506;BME280;58032;49.820;6.274;2024-03-29T08:45:50;95609.25;;;8.74;100.00
70506;BME280;58032;49.820;6.274;2024-03-29T08:48:16;95617.06;;;8.90;100.00
70506;BME280;58032;49.820;6.274;2024-03-29T08:50:42;95607.75;;;8.73;100.00
70506;BME280;58032;49.820;6.274;2024-03-29T08:53:08;95607.75;;;8.73;100.00
70506;BME280;58032;49.820;6.274;2024-03-29T08:55:35;95617.53;;;8.57;100.00
70506;BME280;58032;49.820;6.274;2024-03-29T08:58:02;95622.03;;;8.75;100.00
70506;BME280;58032;49.820;6.274;2024-03-29T09:00:30;95612.56;;;8.72;100.00
70506;BME280;58032;49.820;6.274;2024-03-29T09:02:56;95609.31;;;8.53;100.00
70506;BME280;58032;49.820;6.274;2024-03-29T09:05:23;95625.13;;;8.77;100.00
70506;BME280;58032;49.820;6.274;2024-03-29T09:07:49;95623.03;;;8.71;100.00
70506;BME280;58032;49.820;6.274;2024-03-29T09:10:16;95630.19;;;8.73;100.00
70506;BME280;58032;49.820;6.274;2024-03-29T09:12:43;95638.88;;;8.75;100.00
70506;BME280;58032;49.820;6.274;2024-03-29T09:15:09;95630.84;;;8.88;100.00
70506;BME280;58032;49.820;6.274;2024-03-29T09:17:40;95623.47;;;8.91;100.00
70506;BME280;58032;49.820;6.274;2024-03-29T09:20:07;95618.50;;;9.06;100.00
70506;BME280;58032;49.820;6.274;2024-03-29T09:22:34;95628.91;;;9.00;100.00
70506;BME280;58032;49.820;6.274;2024-03-29T09:25:00;95614.81;;;8.94;100.00
70506;BME280;58032;49.820;6.274;2024-03-29T09:27:27;95619.81;;;9.11;100.00
70506;BME280;58032;49.820;6.274;2024-03-29T09:29:55;95623.31;;;9.06;100.00
70506;BME280;58032;49.820;6.274;2024-03-29T09:32:22;95617.94;;;9.34;100.00
70506;BME280;58032;49.820;6.274;2024-03-29T09:34:48;95615.91;;;9.34;100.00
70506;BME280;58032;49.820;6.274;2024-03-29T09:37:15;95618.09;;;9.19;100.00
70506;BME280;58032;49.820;6.274;2024-03-29T09:39:41;95608.84;;;9.13;100.00
70506;BME280;58032;49.820;6.274;2024-03-29T09:42:13;95616.75;;;8.82;100.00
70506;BME280;58032;49.820;6.274;2024-03-29T09:44:43;95625.91;;;9.09;100.00
70506;BME280;58032;49.820;6.274;2024-03-29T09:47:09;95619.88;;;9.22;100.00
70506;BME280;58032;49.820;6.274;2024-03-29T09:49:38;95625.16;;;9.09;100.00
70506;BME280;58032;49.820;6.274;2024-03-29T09:52:07;95627.91;;;9.03;100.00
70506;BME280;58032;49.820;6.274;2024-03-29T09:54:34;95631.72;;;9.00;100.00
70506;BME280;58032;49.820;6.274;2024-03-29T09:57:01;95644.00;;;9.08;100.00
70506;BME280;58032;49.820;6.274;2024-03-29T09:59:27;95649.22;;;8.89;100.00
70506;BME280;58032;49.820;6.274;2024-03-29T10:01:58;95671.78;;;9.00;100.00
70506;BME280;58032;49.820;6.274;2024-03-29T10:04:24;95663.06;;;8.98;100.00
70506;BME280;58032;49.820;6.274;2024-03-29T10:06:51;95659.41;;;8.86;100.00
70506;BME280;58032;49.820;6.274;2024-03-29T10:09:18;95660.31;;;9.04;100.00
70506;BME280;58032;49.820;6.274;2024-03-29T10:11:45;95656.75;;;9.03;100.00
70506;BME280;58032;49.820;6.274;2024-03-29T10:14:11;95658.34;;;9.10;100.00
70506;BME280;58032;49.820;6.274;2024-03-29T10:16:37;95676.22;;;9.45;100.00
70506;BME280;58032;49.820;6.274;2024-03-29T10:19:04;95678.63;;;9.26;100.00
70506;BME280;58032;49.820;6.274;2024-03-29T10:21:32;95684.00;;;8.97;100.00
70506;BME280;58032;49.820;6.274;2024-03-29T10:23:59;95690.09;;;8.96;100.00
70506;BME280;58032;49.820;6.274;2024-03-29T10:26:25;95687.53;;;8.92;100.00
70506;BME280;58032;49.820;6.274;2024-03-29T10:28:51;95689.28;;;8.90;100.00
70506;BME280;58032;49.820;6.274;2024-03-29T10:31:20;95681.25;;;9.03;100.00
70506;BME280;58032;49.820;6.274;2024-03-29T10:33:46;95676.63;;;9.00;100.00
70506;BME280;58032;49.820;6.274;2024-03-29T10:36:13;95682.13;;;9.15;100.00
70506;BME280;58032;49.820;6.274;2024-03-29T10:38:40;95672.31;;;9.05;100.00
70506;BME280;58032;49.820;6.274;2024-03-29T10:41:07;95667.78;;;8.81;100.00
70506;BME280;58032;49.820;6.274;2024-03-29T10:43:33;95664.63;;;8.99;100.00
70506;BME280;58032;49.820;6.274;2024-03-29T10:46:00;95674.25;;;8.93;100.00
70506;BME280;58032;49.820;6.274;2024-03-29T10:48:27;95672.75;;;8.97;100.00
70506;BME280;58032;49.820;6.274;2024-03-29T10:50:58;95665.56;;;8.91;100.00
70506;BME280;58032;49.820;6.274;2024-03-29T10:53:25;95662.91;;;9.08;100.00
70506;BME280;58032;49.820;6.274;2024-03-29T10:55:58;95668.03;;;9.09;100.00
70506;BME280;58032;49.820;6.274;2024-03-29T10:58:35;95665.63;;;9.28;100.00
70506;BME280;58032;49.820;6.274;2024-03-29T11:01:04;95684.84;;;9.35;100.00
70506;BME280;58032;49.820;6.274;2024-03-29T11:03:44;95692.97;;;9.28;100.00
70506;BME280;58032;49.820;6.274;2024-03-29T11:06:12;95688.75;;;9.12;100.00
70506;BME280;58032;49.820;6.274;2024-03-29T11:08:40;95704.03;;;9.37;100.00
70506;BME280;58032;49.820;6.274;2024-03-29T11:11:12;95709.94;;;9.45;100.00
70506;BME280;58032;49.820;6.274;2024-03-29T11:14:02;95708.63;;;9.40;100.00
70506;BME280;58032;49.820;6.274;2024-03-29T11:16:29;95704.88;;;9.49;100.00
70506;BME280;58032;49.820;6.274;2024-03-29T11:18:55;95698.84;;;9.30;100.00
70506;BME280;58032;49.820;6.274;2024-03-29T11:21:23;95704.59;;;9.47;100.00
70506;BME280;58032;49.820;6.274;2024-03-29T11:23:54;95708.91;;;9.42;100.00
70506;BME280;58032;49.820;6.274;2024-03-29T11:26:21;95720.19;;;9.48;100.00
70506;BME280;58032;49.820;6.274;2024-03-29T11:28:51;95726.53;;;9.75;100.00
70506;BME280;58032;49.820;6.274;2024-03-29T11:31:17;95721.81;;;9.60;100.00
70506;BME280;58032;49.820;6.274;2024-03-29T11:33:45;95709.78;;;9.54;100.00
70506;BME280;58032;49.820;6.274;2024-03-29T11:36:14;95721.69;;;9.75;100.00
70506;BME280;58032;49.820;6.274;2024-03-29T11:38:42;95713.03;;;9.79;100.00
70506;BME280;58032;49.820;6.274;2024-03-29T11:41:13;95710.97;;;9.79;100.00
70506;BME280;58032;49.820;6.274;2024-03-29T11:43:40;95745.56;;;9.91;100.00
70506;BME280;58032;49.820;6.274;2024-03-29T11:46:18;95740.25;;;9.99;100.00
70506;BME280;58032;49.820;6.274;2024-03-29T11:48:45;95739.28;;;10.08;100.00
70506;BME280;58032;49.820;6.274;2024-03-29T11:51:21;95736.84;;;9.89;100.00
70506;BME280;58032;49.820;6.274;2024-03-29T11:53:48;95739.84;;;10.18;100.00
70506;BME280;58032;49.820;6.274;2024-03-29T11:56:16;95747.38;;;10.00;100.00
70506;BME280;58032;49.820;6.274;2024-03-29T11:58:43;95753.19;;;10.23;100.00
70506;BME280;58032;49.820;6.274;2024-03-29T12:01:10;95756.78;;;10.29;100.00
70506;BME280;58032;49.820;6.274;2024-03-29T12:03:39;95746.53;;;10.26;100.00
70506;BME280;58032;49.820;6.274;2024-03-29T12:06:06;95748.94;;;10.39;100.00
70506;BME280;58032;49.820;6.274;2024-03-29T12:08:35;95735.72;;;10.56;100.00
70506;BME280;58032;49.820;6.274;2024-03-29T12:11:03;95747.19;;;10.47;100.00
70506;BME280;58032;49.820;6.274;2024-03-29T12:13:30;95748.81;;;10.22;100.00
70506;BME280;58032;49.820;6.274;2024-03-29T12:15:56;95754.38;;;10.48;100.00
70506;BME280;58032;49.820;6.274;2024-03-29T12:18:24;95749.63;;;10.77;100.00
70506;BME280;58032;49.820;6.274;2024-03-29T12:20:55;95753.94;;;10.72;100.00
70506;BME280;58032;49.820;6.274;2024-03-29T12:23:21;95760.00;;;10.54;100.00
70506;BME280;58032;49.820;6.274;2024-03-29T12:25:49;95752.38;;;10.66;100.00
70506;BME280;58032;49.820;6.274;2024-03-29T12:28:16;95751.66;;;10.71;100.00
70506;BME280;58032;49.820;6.274;2024-03-29T12:30:46;95749.06;;;10.67;100.00
70506;BME280;58032;49.820;6.274;2024-03-29T12:33:20;95753.41;;;10.63;100.00
70506;BME280;58032;49.820;6.274;2024-03-29T12:35:49;95757.97;;;10.54;100.00
70506;BME280;58032;49.820;6.274;2024-03-29T12:38:16;95767.63;;;10.42;100.00
70506;BME280;58032;49.820;6.274;2024-03-29T12:40:45;95756.94;;;10.52;100.00
70506;BME280;58032;49.820;6.274;2024-03-29T12:43:15;95743.13;;;10.54;100.00
70506;BME280;58032;49.820;6.274;2024-03-29T12:45:45;95744.63;;;10.43;100.00
70506;BME280;58032;49.820;6.274;2024-03-29T12:50:42;95750.59;;;10.63;100.00
70506;BME280;58032;49.820;6.274;2024-03-29T12:53:10;95758.75;;;10.60;100.00
70506;BME280;58032;49.820;6.274;2024-03-29T12:55:39;95761.47;;;10.98;100.00
70506;BME280;58032;49.820;6.274;2024-03-29T12:58:08;95743.25;;;10.76;100.00
70506;BME280;58032;49.820;6.274;2024-03-29T13:00:37;95742.56;;;11.10;100.00
70506;BME280;58032;49.820;6.274;2024-03-29T13:03:03;95734.53;;;10.74;100.00